sensor_id;sensor_type;location;lat;lon;timestamp;pressure;altitude;pressure_sealevel;temperature;humidity
6615;BME280;3343;42.896;23.912;2023-03-17T00:01:20;74202.31;;;-145.80;60.42
6615;BME280;3343;42.896;23.912;2023-03-17T00:03:49;74216.38;;;-145.80;61.04
6615;BME280;3343;42.896;23.912;2023-03-17T00:06:18;74184.28;;;-145.80;60.77
6615;BME280;3343;42.896;23.912;2023-03-17T00:08:48;74212.34;;;-145.80;61.18
6615;BME280;3343;42.896;23.912;2023-03-17T00:11:16;74150.16;;;-145.80;59.96
6615;BME280;3343;42.896;23.912;2023-03-17T00:13:44;74118.06;;;-145.80;59.57
6615;BME280;3343;42.896;23.912;2023-03-17T00:16:15;74102.00;;;-145.80;60.09
6615;BME280;3343;42.896;23.912;2023-03-17T00:18:42;74132.09;;;-145.80;60.67
6615;BME280;3343;42.896;23.912;2023-03-17T00:21:11;74116.06;;;-145.80;59.64
6615;BME280;3343;42.896;23.912;2023-03-17T00:23:40;74108.03;;;-145.80;59.60
6615;BME280;3343;42.896;23.912;2023-03-17T00:26:10;74108.03;;;-145.80;59.14
6615;BME280;3343;42.896;23.912;2023-03-17T00:28:37;74102.00;;;-145.80;57.81
6615;BME280;3343;42.896;23.912;2023-03-17T00:31:11;74128.09;;;-145.80;58.33
6615;BME280;3343;42.896;23.912;2023-03-17T00:33:39;74106.03;;;-145.80;57.93
6615;BME280;3343;42.896;23.912;2023-03-17T00:36:09;74124.09;;;-145.80;58.44
6615;BME280;3343;42.896;23.912;2023-03-17T00:38:39;74154.19;;;-145.80;59.27
6615;BME280;3343;42.896;23.912;2023-03-17T00:41:07;74130.09;;;-145.80;58.90
6615;BME280;3343;42.896;23.912;2023-03-17T00:43:34;74182.25;;;-145.80;59.21
6615;BME280;3343;42.896;23.912;2023-03-17T00:46:01;74192.28;;;-145.80;59.67
6615;BME280;3343;42.896;23.912;2023-03-17T00:48:29;74212.34;;;-145.80;59.56
6615;BME280;3343;42.896;23.912;2023-03-17T00:50:56;74212.34;;;-145.80;59.44
6615;BME280;3343;42.896;23.912;2023-03-17T00:53:24;74252.47;;;-145.80;60.02
6615;BME280;3343;42.896;23.912;2023-03-17T00:55:50;74226.41;;;-145.80;59.79
6615;BME280;3343;42.896;23.912;2023-03-17T00:58:23;74208.34;;;-145.80;59.14
6615;BME280;3343;42.896;23.912;2023-03-17T01:00:51;74240.44;;;-145.80;59.58
6615;BME280;3343;42.896;23.912;2023-03-17T01:03:18;74220.38;;;-145.80;58.85
6615;BME280;3343;42.896;23.912;2023-03-17T01:05:47;74220.38;;;-145.80;59.44
6615;BME280;3343;42.896;23.912;2023-03-17T01:08:14;74224.38;;;-145.80;59.41
6615;BME280;3343;42.896;23.912;2023-03-17T01:10:42;74210.34;;;-145.80;59.18
6615;BME280;3343;42.896;23.912;2023-03-17T01:13:11;74180.25;;;-145.80;59.59
6615;BME280;3343;42.896;23.912;2023-03-17T01:15:42;74164.22;;;-145.80;59.41
6615;BME280;3343;42.896;23.912;2023-03-17T01:18:11;74206.34;;;-145.80;60.60
6615;BME280;3343;42.896;23.912;2023-03-17T01:20:38;74244.47;;;-145.80;61.39
6615;BME280;3343;42.896;23.912;2023-03-17T01:23:06;74274.56;;;-145.80;62.51
6615;BME280;3343;42.896;23.912;2023-03-17T01:25:34;74248.47;;;-145.80;61.83
6615;BME280;3343;42.896;23.912;2023-03-17T01:28:01;74216.38;;;-145.80;61.20
6615;BME280;3343;42.896;23.912;2023-03-17T01:30:29;74182.25;;;-145.80;60.50
6615;BME280;3343;42.896;23.912;2023-03-17T01:32:57;74156.19;;;-145.80;60.08
6615;BME280;3343;42.896;23.912;2023-03-17T01:35:26;74126.09;;;-145.80;59.42
6615;BME280;3343;42.896;23.912;2023-03-17T01:37:54;74122.06;;;-145.80;59.24
6615;BME280;3343;42.896;23.912;2023-03-17T01:40:25;74116.06;;;-145.80;59.38
6615;BME280;3343;42.896;23.912;2023-03-17T01:42:58;74122.06;;;-145.80;58.77
6615;BME280;3343;42.896;23.912;2023-03-17T01:48:30;74096.00;;;-145.80;58.54
6615;BME280;3343;42.896;23.912;2023-03-17T01:51:00;74130.09;;;-145.80;58.95
6615;BME280;3343;42.896;23.912;2023-03-17T01:53:28;74130.09;;;-145.80;58.76
6615;BME280;3343;42.896;23.912;2023-03-17T01:55:57;74094.00;;;-145.80;58.40
6615;BME280;3343;42.896;23.912;2023-03-17T01:58:24;74096.00;;;-145.80;58.39
6615;BME280;3343;42.896;23.912;2023-03-17T02:00:52;74128.09;;;-145.80;58.64
6615;BME280;3343;42.896;23.912;2023-03-17T02:03:20;74096.00;;;-145.80;58.69
6615;BME280;3343;42.896;23.912;2023-03-17T02:05:50;74112.03;;;-145.80;58.99
6615;BME280;3343;42.896;23.912;2023-03-17T02:08:18;74152.16;;;-145.80;59.77
6615;BME280;3343;42.896;23.912;2023-03-17T02:10:47;74124.09;;;-145.80;59.70
6615;BME280;3343;42.896;23.912;2023-03-17T02:13:16;74146.16;;;-145.80;60.26
6615;BME280;3343;42.896;23.912;2023-03-17T02:15:45;74138.13;;;-145.80;59.84
6615;BME280;3343;42.896;23.912;2023-03-17T02:18:13;74144.16;;;-145.80;59.65
6615;BME280;3343;42.896;23.912;2023-03-17T02:21:27;74148.16;;;-145.80;59.18
6615;BME280;3343;42.896;23.912;2023-03-17T02:23:55;74140.13;;;-145.80;58.95
6615;BME280;3343;42.896;23.912;2023-03-17T02:26:24;74128.09;;;-145.80;57.93
6615;BME280;3343;42.896;23.912;2023-03-17T02:28:52;74160.19;;;-145.80;58.23
6615;BME280;3343;42.896;23.912;2023-03-17T02:31:19;74132.09;;;-145.80;58.52
6615;BME280;3343;42.896;23.912;2023-03-17T02:33:46;74156.19;;;-145.80;59.41
6615;BME280;3343;42.896;23.912;2023-03-17T02:36:13;74154.19;;;-145.80;58.67
6615;BME280;3343;42.896;23.912;2023-03-17T02:38:42;74120.06;;;-145.80;58.44
6615;BME280;3343;42.896;23.912;2023-03-17T02:41:10;74122.06;;;-145.80;58.07
6615;BME280;3343;42.896;23.912;2023-03-17T02:43:36;74136.13;;;-145.80;58.02
6615;BME280;3343;42.896;23.912;2023-03-17T02:46:04;74140.13;;;-145.80;57.79
6615;BME280;3343;42.896;23.912;2023-03-17T02:48:31;74160.19;;;-145.80;58.54
6615;BME280;3343;42.896;23.912;2023-03-17T02:50:59;74160.19;;;-145.80;58.99
6615;BME280;3343;42.896;23.912;2023-03-17T02:53:26;74190.28;;;-145.80;58.98
6615;BME280;3343;42.896;23.912;2023-03-17T02:55:54;74176.25;;;-145.80;59.14
6615;BME280;3343;42.896;23.912;2023-03-17T02:58:22;74294.63;;;-145.80;61.31
6615;BME280;3343;42.896;23.912;2023-03-17T03:00:49;74304.66;;;-145.80;61.87
6615;BME280;3343;42.896;23.912;2023-03-17T03:03:16;74304.66;;;-145.80;61.89
6615;BME280;3343;42.896;23.912;2023-03-17T03:05:43;74292.59;;;-145.80;61.88
6615;BME280;3343;42.896;23.912;2023-03-17T03:08:10;74280.56;;;-145.80;61.35
6615;BME280;3343;42.896;23.912;2023-03-17T03:10:36;74260.50;;;-145.80;60.97
6615;BME280;3343;42.896;23.912;2023-03-17T03:13:04;74224.38;;;-145.80;60.27
6615;BME280;3343;42.896;23.912;2023-03-17T03:15:31;74296.63;;;-145.80;61.42
6615;BME280;3343;42.896;23.912;2023-03-17T03:17:58;74280.56;;;-145.80;61.16
6615;BME280;3343;42.896;23.912;2023-03-17T03:20:25;74264.53;;;-145.80;61.66
6615;BME280;3343;42.896;23.912;2023-03-17T03:22:52;74246.47;;;-145.80;60.93
6615;BME280;3343;42.896;23.912;2023-03-17T03:25:19;74248.47;;;-145.80;61.03
6615;BME280;3343;42.896;23.912;2023-03-17T03:27:45;74212.34;;;-145.80;59.92
6615;BME280;3343;42.896;23.912;2023-03-17T03:30:14;74198.31;;;-145.80;59.45
6615;BME280;3343;42.896;23.912;2023-03-17T03:32:41;74196.31;;;-145.80;59.11
6615;BME280;3343;42.896;23.912;2023-03-17T03:35:08;74184.28;;;-145.80;59.52
6615;BME280;3343;42.896;23.912;2023-03-17T03:37:35;74200.31;;;-145.80;59.67
6615;BME280;3343;42.896;23.912;2023-03-17T03:40:02;74244.47;;;-145.80;60.53
6615;BME280;3343;42.896;23.912;2023-03-17T03:42:29;74252.47;;;-145.80;60.56
6615;BME280;3343;42.896;23.912;2023-03-17T03:44:56;74282.56;;;-145.80;60.73
6615;BME280;3343;42.896;23.912;2023-03-17T03:47:24;74264.53;;;-145.80;60.88
6615;BME280;3343;42.896;23.912;2023-03-17T03:49:51;74260.50;;;-145.80;60.64
6615;BME280;3343;42.896;23.912;2023-03-17T03:52:17;74214.38;;;-145.80;59.31
6615;BME280;3343;42.896;23.912;2023-03-17T03:54:45;74230.41;;;-145.80;58.90
6615;BME280;3343;42.896;23.912;2023-03-17T03:57:12;74212.34;;;-145.80;58.52
6615;BME280;3343;42.896;23.912;2023-03-17T03:59:39;74230.41;;;-145.80;58.66
6615;BME280;3343;42.896;23.912;2023-03-17T04:02:06;74228.41;;;-145.80;58.76
6615;BME280;3343;42.896;23.912;2023-03-17T04:04:34;74216.38;;;-145.80;58.86
6615;BME280;3343;42.896;23.912;2023-03-17T04:07:01;74256.50;;;-145.80;59.25
6615;BME280;3343;42.896;23.912;2023-03-17T04:09:28;74258.50;;;-145.80;59.83
6615;BME280;3343;42.896;23.912;2023-03-17T04:11:55;74288.59;;;-145.80;60.79
6615;BME280;3343;42.896;23.912;2023-03-17T04:14:22;74316.69;;;-145.80;61.37
6615;BME280;3343;42.896;23.912;2023-03-17T04:16:48;74342.75;;;-145.80;62.14
6615;BME280;3343;42.896;23.912;2023-03-17T04:19:15;74368.84;;;-145.80;62.65
6615;BME280;3343;42.896;23.912;2023-03-17T04:21:43;74443.06;;;-145.80;64.17
6615;BME280;3343;42.896;23.912;2023-03-17T04:24:10;74435.06;;;-145.80;63.81
6615;BME280;3343;42.896;23.912;2023-03-17T04:26:37;74380.88;;;-145.80;62.67
6615;BME280;3343;42.896;23.912;2023-03-17T04:29:04;74342.75;;;-145.80;61.82
6615;BME280;3343;42.896;23.912;2023-03-17T04:31:33;74342.75;;;-145.80;61.70
6615;BME280;3343;42.896;23.912;2023-03-17T04:34:00;74306.66;;;-145.80;60.92
6615;BME280;3343;42.896;23.912;2023-03-17T04:36:27;74278.56;;;-145.80;60.37
6615;BME280;3343;42.896;23.912;2023-03-17T04:38:55;74286.59;;;-145.80;61.10
6615;BME280;3343;42.896;23.912;2023-03-17T04:41:22;74294.63;;;-145.80;60.92
6615;BME280;3343;42.896;23.912;2023-03-17T04:43:49;74282.56;;;-145.80;60.20
6615;BME280;3343;42.896;23.912;2023-03-17T04:46:15;74292.59;;;-145.80;61.02
6615;BME280;3343;42.896;23.912;2023-03-17T04:48:42;74286.59;;;-145.80;61.12
6615;BME280;3343;42.896;23.912;2023-03-17T04:51:09;74264.53;;;-145.80;60.48
6615;BME280;3343;42.896;23.912;2023-03-17T04:53:36;74258.50;;;-145.80;60.33
6615;BME280;3343;42.896;23.912;2023-03-17T04:56:05;74242.44;;;-145.80;59.99
6615;BME280;3343;42.896;23.912;2023-03-17T04:58:32;74248.47;;;-145.80;59.86
6615;BME280;3343;42.896;23.912;2023-03-17T05:00:59;74268.53;;;-145.80;60.43
6615;BME280;3343;42.896;23.912;2023-03-17T05:03:26;74296.63;;;-145.80;61.20
6615;BME280;3343;42.896;23.912;2023-03-17T05:05:55;74294.63;;;-145.80;60.79
6615;BME280;3343;42.896;23.912;2023-03-17T05:08:21;74312.66;;;-145.80;60.68
6615;BME280;3343;42.896;23.912;2023-03-17T05:10:48;74294.63;;;-145.80;60.29
6615;BME280;3343;42.896;23.912;2023-03-17T05:13:17;74260.50;;;-145.80;59.70
6615;BME280;3343;42.896;23.912;2023-03-17T05:15:45;74252.47;;;-145.80;59.38
6615;BME280;3343;42.896;23.912;2023-03-17T05:18:13;74236.44;;;-145.80;58.63
6615;BME280;3343;42.896;23.912;2023-03-17T05:20:39;74248.47;;;-145.80;58.95
6615;BME280;3343;42.896;23.912;2023-03-17T05:23:07;74256.50;;;-145.80;59.11
6615;BME280;3343;42.896;23.912;2023-03-17T05:25:34;74256.50;;;-145.80;58.90
6615;BME280;3343;42.896;23.912;2023-03-17T05:28:01;74236.44;;;-145.80;58.67
6615;BME280;3343;42.896;23.912;2023-03-17T05:30:29;74268.53;;;-145.80;59.38
6615;BME280;3343;42.896;23.912;2023-03-17T05:32:57;74260.50;;;-145.80;58.38
6615;BME280;3343;42.896;23.912;2023-03-17T05:35:25;74274.56;;;-145.80;58.83
6615;BME280;3343;42.896;23.912;2023-03-17T05:37:52;74284.56;;;-145.80;58.49
6615;BME280;3343;42.896;23.912;2023-03-17T05:40:19;74298.63;;;-145.80;58.97
6615;BME280;3343;42.896;23.912;2023-03-17T05:42:48;74274.56;;;-145.80;58.66
6615;BME280;3343;42.896;23.912;2023-03-17T05:45:15;74336.75;;;-145.80;58.81
6615;BME280;3343;42.896;23.912;2023-03-17T05:47:44;74316.69;;;-145.80;59.37
6615;BME280;3343;42.896;23.912;2023-03-17T05:50:12;74324.72;;;-145.80;59.84
6615;BME280;3343;42.896;23.912;2023-03-17T05:52:38;74344.78;;;-145.80;60.31
6615;BME280;3343;42.896;23.912;2023-03-17T05:55:06;74328.72;;;-145.80;60.27
6615;BME280;3343;42.896;23.912;2023-03-17T05:57:33;74326.72;;;-145.80;60.19
6615;BME280;3343;42.896;23.912;2023-03-17T06:00:00;74304.66;;;-145.80;60.16
6615;BME280;3343;42.896;23.912;2023-03-17T06:02:29;74288.59;;;-145.80;59.25
6615;BME280;3343;42.896;23.912;2023-03-17T06:04:58;74290.59;;;-145.80;59.03
6615;BME280;3343;42.896;23.912;2023-03-17T06:07:25;74314.66;;;-145.80;59.83
6615;BME280;3343;42.896;23.912;2023-03-17T06:09:52;74320.69;;;-145.80;59.99
6615;BME280;3343;42.896;23.912;2023-03-17T06:12:19;74304.66;;;-145.80;59.55
6615;BME280;3343;42.896;23.912;2023-03-17T06:14:46;74304.66;;;-145.80;59.67
6615;BME280;3343;42.896;23.912;2023-03-17T06:17:13;74320.69;;;-145.80;59.87
6615;BME280;3343;42.896;23.912;2023-03-17T06:19:40;74288.59;;;-145.80;59.60
6615;BME280;3343;42.896;23.912;2023-03-17T06:22:08;74284.56;;;-145.80;59.47
6615;BME280;3343;42.896;23.912;2023-03-17T06:24:35;74276.56;;;-145.80;58.50
6615;BME280;3343;42.896;23.912;2023-03-17T06:27:02;74258.50;;;-145.80;58.69
6615;BME280;3343;42.896;23.912;2023-03-17T06:29:29;74270.53;;;-145.80;58.95
6615;BME280;3343;42.896;23.912;2023-03-17T06:31:56;74288.59;;;-145.80;59.20
6615;BME280;3343;42.896;23.912;2023-03-17T06:34:24;74256.50;;;-145.80;57.96
6615;BME280;3343;42.896;23.912;2023-03-17T06:36:52;74230.41;;;-145.80;57.37
6615;BME280;3343;42.896;23.912;2023-03-17T06:39:20;74206.34;;;-145.80;56.85
6615;BME280;3343;42.896;23.912;2023-03-17T06:41:47;74236.44;;;-145.80;57.33
6615;BME280;3343;42.896;23.912;2023-03-17T06:44:15;74260.50;;;-145.80;57.48
6615;BME280;3343;42.896;23.912;2023-03-17T06:46:42;74240.44;;;-145.80;57.44
6615;BME280;3343;42.896;23.912;2023-03-17T06:49:09;74258.50;;;-145.80;57.46
6615;BME280;3343;42.896;23.912;2023-03-17T06:51:38;74254.47;;;-145.80;57.62
6615;BME280;3343;42.896;23.912;2023-03-17T06:54:05;74254.47;;;-145.80;57.28
6615;BME280;3343;42.896;23.912;2023-03-17T06:56:34;74244.47;;;-145.80;57.24
6615;BME280;3343;42.896;23.912;2023-03-17T06:59:01;74236.44;;;-145.80;57.27
6615;BME280;3343;42.896;23.912;2023-03-17T07:01:29;74262.50;;;-145.80;57.09
6615;BME280;3343;42.896;23.912;2023-03-17T07:03:56;74250.47;;;-145.80;56.41
6615;BME280;3343;42.896;23.912;2023-03-17T07:06:24;74252.47;;;-145.80;56.93
6615;BME280;3343;42.896;23.912;2023-03-17T07:08:50;74240.44;;;-145.80;56.54
6615;BME280;3343;42.896;23.912;2023-03-17T07:11:17;74240.44;;;-145.80;57.00
6615;BME280;3343;42.896;23.912;2023-03-17T07:13:46;74218.38;;;-145.80;55.63
6615;BME280;3343;42.896;23.912;2023-03-17T07:16:13;74218.38;;;-145.80;56.00
6615;BME280;3343;42.896;23.912;2023-03-17T07:18:41;74186.28;;;-145.80;55.18
6615;BME280;3343;42.896;23.912;2023-03-17T07:21:09;74176.25;;;-145.80;54.80
6615;BME280;3343;42.896;23.912;2023-03-17T07:23:36;74192.28;;;-145.80;54.28
6615;BME280;3343;42.896;23.912;2023-03-17T07:26:03;74192.28;;;-145.80;53.68
6615;BME280;3343;42.896;23.912;2023-03-17T07:28:30;74188.28;;;-145.80;54.66
6615;BME280;3343;42.896;23.912;2023-03-17T07:30:58;74146.16;;;-145.80;54.41
6615;BME280;3343;42.896;23.912;2023-03-17T07:33:27;74166.22;;;-145.80;54.85
6615;BME280;3343;42.896;23.912;2023-03-17T07:35:55;74176.25;;;-145.80;55.04
6615;BME280;3343;42.896;23.912;2023-03-17T07:38:22;74196.31;;;-145.80;54.86
6615;BME280;3343;42.896;23.912;2023-03-17T07:40:49;74184.28;;;-145.80;55.18
6615;BME280;3343;42.896;23.912;2023-03-17T07:43:17;74178.25;;;-145.80;55.19
6615;BME280;3343;42.896;23.912;2023-03-17T07:45:44;74154.19;;;-145.80;55.21
6615;BME280;3343;42.896;23.912;2023-03-17T07:48:13;74144.16;;;-145.80;55.25
6615;BME280;3343;42.896;23.912;2023-03-17T07:50:40;74198.31;;;-145.80;55.62
6615;BME280;3343;42.896;23.912;2023-03-17T07:53:07;74238.44;;;-145.80;56.09
6615;BME280;3343;42.896;23.912;2023-03-17T07:55:34;74210.34;;;-145.80;56.46
6615;BME280;3343;42.896;23.912;2023-03-17T07:58:03;74190.28;;;-145.80;55.94
6615;BME280;3343;42.896;23.912;2023-03-17T08:00:30;74170.22;;;-145.80;55.38
6615;BME280;3343;42.896;23.912;2023-03-17T08:02:58;74184.28;;;-145.80;54.89
6615;BME280;3343;42.896;23.912;2023-03-17T08:05:27;74172.22;;;-145.80;55.10
6615;BME280;3343;42.896;23.912;2023-03-17T08:07:56;74160.19;;;-145.80;54.85
6615;BME280;3343;42.896;23.912;2023-03-17T08:10:23;74164.22;;;-145.80;54.92
6615;BME280;3343;42.896;23.912;2023-03-17T08:12:50;74176.25;;;-145.80;54.66
6615;BME280;3343;42.896;23.912;2023-03-17T08:15:18;74178.25;;;-145.80;54.77
6615;BME280;3343;42.896;23.912;2023-03-17T08:17:46;74172.22;;;-145.80;54.51
6615;BME280;3343;42.896;23.912;2023-03-17T08:20:13;74164.22;;;-145.80;54.38
6615;BME280;3343;42.896;23.912;2023-03-17T08:22:41;74164.22;;;-145.80;52.18
6615;BME280;3343;42.896;23.912;2023-03-17T08:25:08;74184.28;;;-145.80;52.08
6615;BME280;3343;42.896;23.912;2023-03-17T08:27:36;74168.22;;;-145.80;50.57
6615;BME280;3343;42.896;23.912;2023-03-17T08:30:03;74152.16;;;-145.80;51.94
6615;BME280;3343;42.896;23.912;2023-03-17T08:32:30;74148.16;;;-145.80;52.37
6615;BME280;3343;42.896;23.912;2023-03-17T08:34:57;74160.19;;;-145.80;52.25
6615;BME280;3343;42.896;23.912;2023-03-17T08:37:24;74160.19;;;-145.80;50.62
6615;BME280;3343;42.896;23.912;2023-03-17T08:39:53;74174.25;;;-145.80;49.04
6615;BME280;3343;42.896;23.912;2023-03-17T08:42:20;74188.28;;;-145.80;52.49
6615;BME280;3343;42.896;23.912;2023-03-17T08:44:48;74160.19;;;-145.80;51.92
6615;BME280;3343;42.896;23.912;2023-03-17T08:47:14;74134.13;;;-145.80;50.41
6615;BME280;3343;42.896;23.912;2023-03-17T08:49:42;74132.09;;;-145.80;49.69
6615;BME280;3343;42.896;23.912;2023-03-17T08:52:09;74122.06;;;-145.80;50.59
6615;BME280;3343;42.896;23.912;2023-03-17T08:54:35;74116.06;;;-145.80;49.61
6615;BME280;3343;42.896;23.912;2023-03-17T08:57:04;74094.00;;;-145.80;50.00
6615;BME280;3343;42.896;23.912;2023-03-17T08:59:31;74158.19;;;-145.80;50.91
6615;BME280;3343;42.896;23.912;2023-03-17T09:01:58;74144.16;;;-145.80;52.06
6615;BME280;3343;42.896;23.912;2023-03-17T09:04:26;74134.13;;;-145.80;50.58
6615;BME280;3343;42.896;23.912;2023-03-17T09:06:53;74148.16;;;-145.80;50.57
6615;BME280;3343;42.896;23.912;2023-03-17T09:09:21;74150.16;;;-145.80;52.09
6615;BME280;3343;42.896;23.912;2023-03-17T09:11:48;74166.22;;;-145.80;51.40
6615;BME280;3343;42.896;23.912;2023-03-17T09:14:16;74154.19;;;-145.80;52.75
6615;BME280;3343;42.896;23.912;2023-03-17T09:16:44;74120.06;;;-145.80;52.99
6615;BME280;3343;42.896;23.912;2023-03-17T09:19:13;74075.94;;;-145.80;50.78
6615;BME280;3343;42.896;23.912;2023-03-17T09:21:41;74067.91;;;-145.80;47.56
6615;BME280;3343;42.896;23.912;2023-03-17T09:24:08;74051.88;;;-145.80;48.05
6615;BME280;3343;42.896;23.912;2023-03-17T09:26:36;74031.81;;;-145.80;47.41
6615;BME280;3343;42.896;23.912;2023-03-17T09:29:03;73993.69;;;-145.80;48.53
6615;BME280;3343;42.896;23.912;2023-03-17T09:31:31;74007.72;;;-145.80;47.10
6615;BME280;3343;42.896;23.912;2023-03-17T09:34:00;74007.72;;;-145.80;47.13
6615;BME280;3343;42.896;23.912;2023-03-17T09:36:28;74013.75;;;-145.80;47.29
6615;BME280;3343;42.896;23.912;2023-03-17T09:38:56;73981.66;;;-145.80;47.43
6615;BME280;3343;42.896;23.912;2023-03-17T09:41:46;73935.50;;;-145.80;47.77
6615;BME280;3343;42.896;23.912;2023-03-17T09:44:22;73943.53;;;-145.80;44.03
6615;BME280;3343;42.896;23.912;2023-03-17T09:47:00;73987.66;;;-145.80;43.26
6615;BME280;3343;42.896;23.912;2023-03-17T09:49:39;73959.59;;;-145.80;44.93
6615;BME280;3343;42.896;23.912;2023-03-17T09:52:11;73943.53;;;-145.80;43.18
6615;BME280;3343;42.896;23.912;2023-03-17T09:54:40;73941.53;;;-145.80;44.97
6615;BME280;3343;42.896;23.912;2023-03-17T09:57:12;73941.53;;;-145.80;44.55
6615;BME280;3343;42.896;23.912;2023-03-17T09:59:42;73947.53;;;-145.80;44.27
6615;BME280;3343;42.896;23.912;2023-03-17T10:02:17;73901.41;;;-145.80;44.48
6615;BME280;3343;42.896;23.912;2023-03-17T10:04:47;73901.41;;;-145.80;42.89
6615;BME280;3343;42.896;23.912;2023-03-17T10:07:17;73891.38;;;-145.80;42.63
6615;BME280;3343;42.896;23.912;2023-03-17T10:09:56;73873.31;;;-145.80;42.67
6615;BME280;3343;42.896;23.912;2023-03-17T10:12:34;73905.41;;;-145.80;40.98
6615;BME280;3343;42.896;23.912;2023-03-17T10:15:14;73905.41;;;-145.80;42.82
6615;BME280;3343;42.896;23.912;2023-03-17T10:17:43;73895.38;;;-145.80;43.74
6615;BME280;3343;42.896;23.912;2023-03-17T10:20:13;73877.34;;;-145.80;40.59
6615;BME280;3343;42.896;23.912;2023-03-17T10:22:44;73883.34;;;-145.80;40.54
6615;BME280;3343;42.896;23.912;2023-03-17T10:25:15;73909.44;;;-145.80;40.61
6615;BME280;3343;42.896;23.912;2023-03-17T10:27:44;73957.56;;;-145.80;42.49
6615;BME280;3343;42.896;23.912;2023-03-17T10:30:17;74033.81;;;-145.80;43.30
6615;BME280;3343;42.896;23.912;2023-03-17T10:32:45;74055.88;;;-145.80;44.67
6615;BME280;3343;42.896;23.912;2023-03-17T10:35:13;73971.63;;;-145.80;43.33
6615;BME280;3343;42.896;23.912;2023-03-17T10:37:42;73943.53;;;-145.80;42.65
6615;BME280;3343;42.896;23.912;2023-03-17T10:40:19;73937.50;;;-145.80;41.48
6615;BME280;3343;42.896;23.912;2023-03-17T10:42:48;74003.72;;;-145.80;42.17
6615;BME280;3343;42.896;23.912;2023-03-17T10:45:22;73935.50;;;-145.80;39.99
6615;BME280;3343;42.896;23.912;2023-03-17T10:47:55;73931.50;;;-145.80;38.60
6615;BME280;3343;42.896;23.912;2023-03-17T10:50:24;73923.47;;;-145.80;38.59
6615;BME280;3343;42.896;23.912;2023-03-17T10:52:56;73911.44;;;-145.80;41.03
6615;BME280;3343;42.896;23.912;2023-03-17T10:55:28;73901.41;;;-145.80;41.69
6615;BME280;3343;42.896;23.912;2023-03-17T10:58:01;73821.16;;;-145.80;40.81
6615;BME280;3343;42.896;23.912;2023-03-17T11:00:30;73837.22;;;-145.80;41.65
6615;BME280;3343;42.896;23.912;2023-03-17T11:03:03;73891.38;;;-145.80;40.63
6615;BME280;3343;42.896;23.912;2023-03-17T11:05:35;73919.47;;;-145.80;42.08
6615;BME280;3343;42.896;23.912;2023-03-17T11:08:09;73947.53;;;-145.80;41.09
6615;BME280;3343;42.896;23.912;2023-03-17T11:10:38;73895.38;;;-145.80;41.43
6615;BME280;3343;42.896;23.912;2023-03-17T11:13:06;73877.34;;;-145.80;39.82
6615;BME280;3343;42.896;23.912;2023-03-17T11:15:35;73855.25;;;-145.80;40.48
6615;BME280;3343;42.896;23.912;2023-03-17T11:18:11;73919.47;;;-145.80;41.26
6615;BME280;3343;42.896;23.912;2023-03-17T11:20:45;73875.31;;;-145.80;41.86
6615;BME280;3343;42.896;23.912;2023-03-17T11:23:25;73819.16;;;-145.80;40.00
6615;BME280;3343;42.896;23.912;2023-03-17T11:26:04;73797.09;;;-145.80;39.42
6615;BME280;3343;42.896;23.912;2023-03-17T11:28:38;73871.31;;;-145.80;38.33
6615;BME280;3343;42.896;23.912;2023-03-17T11:31:09;73937.50;;;-145.80;39.96
6615;BME280;3343;42.896;23.912;2023-03-17T11:33:46;73937.50;;;-145.80;40.87
6615;BME280;3343;42.896;23.912;2023-03-17T11:36:26;73907.41;;;-145.80;39.75
6615;BME280;3343;42.896;23.912;2023-03-17T11:38:59;73795.09;;;-145.80;41.26
6615;BME280;3343;42.896;23.912;2023-03-17T11:41:38;73722.88;;;-145.80;40.04
6615;BME280;3343;42.896;23.912;2023-03-17T11:47:39;73712.84;;;-145.80;39.63
6615;BME280;3343;42.896;23.912;2023-03-17T11:50:18;73702.81;;;-145.80;37.80
6615;BME280;3343;42.896;23.912;2023-03-17T11:52:56;73722.88;;;-145.80;37.34
6615;BME280;3343;42.896;23.912;2023-03-17T11:55:34;73746.94;;;-145.80;38.00
6615;BME280;3343;42.896;23.912;2023-03-17T11:58:05;73716.84;;;-145.80;39.03
6615;BME280;3343;42.896;23.912;2023-03-17T12:00:40;73658.69;;;-145.80;39.59
6615;BME280;3343;42.896;23.912;2023-03-17T12:03:16;73680.75;;;-145.80;36.37
6615;BME280;3343;42.896;23.912;2023-03-17T12:05:49;73827.19;;;-145.80;38.31
6615;BME280;3343;42.896;23.912;2023-03-17T12:08:23;73905.41;;;-145.80;39.83
6615;BME280;3343;42.896;23.912;2023-03-17T12:10:56;73973.63;;;-145.80;40.79
6615;BME280;3343;42.896;23.912;2023-03-17T12:13:29;73961.59;;;-145.80;41.36
6615;BME280;3343;42.896;23.912;2023-03-17T12:16:01;73987.66;;;-145.80;39.93
6615;BME280;3343;42.896;23.912;2023-03-17T12:18:34;73913.44;;;-145.80;38.95
6615;BME280;3343;42.896;23.912;2023-03-17T12:21:09;73941.53;;;-145.80;39.42
6615;BME280;3343;42.896;23.912;2023-03-17T12:23:45;73969.59;;;-145.80;40.38
6615;BME280;3343;42.896;23.912;2023-03-17T12:26:15;73921.47;;;-145.80;40.75
6615;BME280;3343;42.896;23.912;2023-03-17T12:28:48;73927.47;;;-145.80;40.50
6615;BME280;3343;42.896;23.912;2023-03-17T12:31:18;74033.81;;;-145.80;41.54
6615;BME280;3343;42.896;23.912;2023-03-17T12:33:50;73977.63;;;-145.80;40.97
6615;BME280;3343;42.896;23.912;2023-03-17T12:36:23;73993.69;;;-145.80;40.76
6615;BME280;3343;42.896;23.912;2023-03-17T12:38:53;73999.69;;;-145.80;41.74
6615;BME280;3343;42.896;23.912;2023-03-17T12:41:47;73933.50;;;-145.80;39.80
6615;BME280;3343;42.896;23.912;2023-03-17T12:44:32;73927.47;;;-145.80;40.84
6615;BME280;3343;42.896;23.912;2023-03-17T12:50:08;73971.63;;;-145.80;41.22
6615;BME280;3343;42.896;23.912;2023-03-17T12:52:59;73979.66;;;-145.80;41.04
6615;BME280;3343;42.896;23.912;2023-03-17T12:55:33;74027.78;;;-145.80;41.26
6615;BME280;3343;42.896;23.912;2023-03-17T12:58:03;73985.66;;;-145.80;41.02
6615;BME280;3343;42.896;23.912;2023-03-17T13:00:36;73963.59;;;-145.80;40.73
6615;BME280;3343;42.896;23.912;2023-03-17T13:03:20;73967.59;;;-145.80;40.33
6615;BME280;3343;42.896;23.912;2023-03-17T13:05:50;73889.38;;;-145.80;40.49
6615;BME280;3343;42.896;23.912;2023-03-17T13:08:24;73945.53;;;-145.80;40.16
6615;BME280;3343;42.896;23.912;2023-03-17T13:11:13;73887.38;;;-145.80;39.82